sensor_id;sensor_type;location;lat;lon;timestamp;P1;durP1;ratioP1;P2;durP2;ratioP2
11931;SDS011;6025;51.368;6.788;2023-08-31T00:02:47;4.57;;;1.58;;
11931;SDS011;6025;51.368;6.788;2023-08-31T00:07:38;3.42;;;1.95;;
11931;SDS011;6025;51.368;6.788;2023-08-31T00:12:32;3.55;;;2.05;;
11931;SDS011;6025;51.368;6.788;2023-08-31T00:17:24;3.08;;;2.05;;
11931;SDS011;6025;51.368;6.788;2023-08-31T00:22:15;4.47;;;2.05;;
11931;SDS011;6025;51.368;6.788;2023-08-31T00:27:07;2.30;;;2.10;;
11931;SDS011;6025;51.368;6.788;2023-08-31T00:32:03;2.45;;;2.00;;
11931;SDS011;6025;51.368;6.788;2023-08-31T00:36:55;5.57;;;2.40;;
11931;SDS011;6025;51.368;6.788;2023-08-31T00:41:47;3.38;;;2.35;;
11931;SDS011;6025;51.368;6.788;2023-08-31T00:46:40;2.90;;;2.15;;
11931;SDS011;6025;51.368;6.788;2023-08-31T00:51:33;3.72;;;2.40;;
11931;SDS011;6025;51.368;6.788;2023-08-31T00:56:25;2.60;;;2.40;;
11931;SDS011;6025;51.368;6.788;2023-08-31T01:01:18;2.38;;;1.88;;
11931;SDS011;6025;51.368;6.788;2023-08-31T01:06:16;4.05;;;2.38;;
11931;SDS011;6025;51.368;6.788;2023-08-31T01:11:15;3.30;;;2.13;;
11931;SDS011;6025;51.368;6.788;2023-08-31T01:16:10;4.47;;;2.30;;
11931;SDS011;6025;51.368;6.788;2023-08-31T01:21:05;2.67;;;1.95;;
11931;SDS011;6025;51.368;6.788;2023-08-31T01:26:03;3.65;;;2.10;;
11931;SDS011;6025;51.368;6.788;2023-08-31T01:30:55;6.30;;;2.15;;
11931;SDS011;6025;51.368;6.788;2023-08-31T01:35:46;2.20;;;1.95;;
11931;SDS011;6025;51.368;6.788;2023-08-31T01:40:44;3.35;;;2.33;;
11931;SDS011;6025;51.368;6.788;2023-08-31T01:45:41;3.28;;;2.00;;
11931;SDS011;6025;51.368;6.788;2023-08-31T01:50:32;4.78;;;2.10;;
11931;SDS011;6025;51.368;6.788;2023-08-31T01:55:24;3.80;;;2.33;;
11931;SDS011;6025;51.368;6.788;2023-08-31T02:00:16;3.80;;;2.30;;
11931;SDS011;6025;51.368;6.788;2023-08-31T02:05:10;4.28;;;2.10;;
11931;SDS011;6025;51.368;6.788;2023-08-31T02:10:02;2.33;;;2.00;;
11931;SDS011;6025;51.368;6.788;2023-08-31T02:14:56;3.05;;;2.25;;
11931;SDS011;6025;51.368;6.788;2023-08-31T02:19:47;2.42;;;1.88;;
11931;SDS011;6025;51.368;6.788;2023-08-31T02:24:40;2.25;;;1.88;;
11931;SDS011;6025;51.368;6.788;2023-08-31T02:29:32;5.43;;;2.30;;
11931;SDS011;6025;51.368;6.788;2023-08-31T02:34:23;3.00;;;2.15;;
11931;SDS011;6025;51.368;6.788;2023-08-31T02:39:15;2.72;;;1.90;;
11931;SDS011;6025;51.368;6.788;2023-08-31T02:44:08;2.50;;;2.10;;
11931;SDS011;6025;51.368;6.788;2023-08-31T02:48:59;2.88;;;1.98;;
11931;SDS011;6025;51.368;6.788;2023-08-31T02:53:51;1.95;;;1.67;;
11931;SDS011;6025;51.368;6.788;2023-08-31T02:58:43;3.25;;;2.00;;
11931;SDS011;6025;51.368;6.788;2023-08-31T03:03:36;2.60;;;2.20;;
11931;SDS011;6025;51.368;6.788;2023-08-31T03:08:27;2.45;;;1.88;;
11931;SDS011;6025;51.368;6.788;2023-08-31T03:13:19;3.75;;;2.40;;
11931;SDS011;6025;51.368;6.788;2023-08-31T03:18:10;2.47;;;2.08;;
11931;SDS011;6025;51.368;6.788;2023-08-31T03:23:03;3.75;;;2.28;;
11931;SDS011;6025;51.368;6.788;2023-08-31T03:27:55;2.80;;;2.10;;
11931;SDS011;6025;51.368;6.788;2023-08-31T03:32:46;2.58;;;1.90;;
11931;SDS011;6025;51.368;6.788;2023-08-31T03:37:38;3.08;;;2.35;;
11931;SDS011;6025;51.368;6.788;2023-08-31T03:42:31;3.75;;;2.20;;
11931;SDS011;6025;51.368;6.788;2023-08-31T03:47:23;3.50;;;1.98;;
11931;SDS011;6025;51.368;6.788;2023-08-31T03:52:15;3.47;;;2.08;;
11931;SDS011;6025;51.368;6.788;2023-08-31T03:57:06;2.78;;;2.13;;
11931;SDS011;6025;51.368;6.788;2023-08-31T04:01:59;3.47;;;2.03;;
11931;SDS011;6025;51.368;6.788;2023-08-31T04:06:51;4.32;;;2.05;;
11931;SDS011;6025;51.368;6.788;2023-08-31T04:11:42;2.60;;;2.00;;
11931;SDS011;6025;51.368;6.788;2023-08-31T04:16:34;3.08;;;1.92;;
11931;SDS011;6025;51.368;6.788;2023-08-31T04:21:27;3.30;;;2.20;;
11931;SDS011;6025;51.368;6.788;2023-08-31T04:26:18;2.35;;;2.10;;
11931;SDS011;6025;51.368;6.788;2023-08-31T04:31:10;2.78;;;2.00;;
11931;SDS011;6025;51.368;6.788;2023-08-31T04:36:02;4.38;;;2.30;;
11931;SDS011;6025;51.368;6.788;2023-08-31T04:40:57;6.47;;;2.65;;
11931;SDS011;6025;51.368;6.788;2023-08-31T04:45:51;3.13;;;2.20;;
11931;SDS011;6025;51.368;6.788;2023-08-31T04:50:42;3.10;;;2.20;;
11931;SDS011;6025;51.368;6.788;2023-08-31T04:55:34;3.90;;;2.63;;
11931;SDS011;6025;51.368;6.788;2023-08-31T05:00:27;4.40;;;2.33;;
11931;SDS011;6025;51.368;6.788;2023-08-31T05:05:18;3.00;;;2.60;;
11931;SDS011;6025;51.368;6.788;2023-08-31T05:10:10;4.38;;;2.33;;
11931;SDS011;6025;51.368;6.788;2023-08-31T05:15:01;3.13;;;2.13;;
11931;SDS011;6025;51.368;6.788;2023-08-31T05:19:55;3.63;;;2.53;;
11931;SDS011;6025;51.368;6.788;2023-08-31T05:24:46;2.78;;;2.33;;
11931;SDS011;6025;51.368;6.788;2023-08-31T05:29:38;2.75;;;2.33;;
11931;SDS011;6025;51.368;6.788;2023-08-31T05:34:29;3.25;;;2.40;;
11931;SDS011;6025;51.368;6.788;2023-08-31T05:39:24;3.30;;;2.42;;
11931;SDS011;6025;51.368;6.788;2023-08-31T05:44:16;3.85;;;2.60;;
11931;SDS011;6025;51.368;6.788;2023-08-31T05:49:08;5.82;;;2.90;;
11931;SDS011;6025;51.368;6.788;2023-08-31T05:53:59;6.60;;;3.25;;
11931;SDS011;6025;51.368;6.788;2023-08-31T05:58:52;3.58;;;3.25;;
11931;SDS011;6025;51.368;6.788;2023-08-31T06:03:45;5.93;;;3.80;;
11931;SDS011;6025;51.368;6.788;2023-08-31T06:08:36;4.93;;;3.67;;
11931;SDS011;6025;51.368;6.788;2023-08-31T06:13:28;6.82;;;3.67;;
11931;SDS011;6025;51.368;6.788;2023-08-31T06:18:21;4.65;;;3.92;;
11931;SDS011;6025;51.368;6.788;2023-08-31T06:23:12;5.15;;;4.30;;
11931;SDS011;6025;51.368;6.788;2023-08-31T06:28:04;5.10;;;3.92;;
11931;SDS011;6025;51.368;6.788;2023-08-31T06:32:58;4.82;;;4.13;;
11931;SDS011;6025;51.368;6.788;2023-08-31T06:37:51;7.35;;;4.15;;
11931;SDS011;6025;51.368;6.788;2023-08-31T06:42:45;6.63;;;4.15;;
11931;SDS011;6025;51.368;6.788;2023-08-31T06:47:37;5.53;;;3.92;;
11931;SDS011;6025;51.368;6.788;2023-08-31T06:52:28;6.40;;;3.95;;
11931;SDS011;6025;51.368;6.788;2023-08-31T06:57:21;4.45;;;3.67;;
11931;SDS011;6025;51.368;6.788;2023-08-31T07:02:13;5.95;;;4.00;;
11931;SDS011;6025;51.368;6.788;2023-08-31T07:07:05;5.50;;;3.45;;
11931;SDS011;6025;51.368;6.788;2023-08-31T07:11:58;5.38;;;3.45;;
11931;SDS011;6025;51.368;6.788;2023-08-31T07:16:52;7.60;;;3.67;;
11931;SDS011;6025;51.368;6.788;2023-08-31T07:21:44;3.60;;;3.25;;
11931;SDS011;6025;51.368;6.788;2023-08-31T07:26:37;5.45;;;3.30;;
11931;SDS011;6025;51.368;6.788;2023-08-31T07:31:28;4.50;;;3.20;;
11931;SDS011;6025;51.368;6.788;2023-08-31T07:36:21;3.97;;;2.90;;
11931;SDS011;6025;51.368;6.788;2023-08-31T07:41:12;4.15;;;2.70;;
11931;SDS011;6025;51.368;6.788;2023-08-31T07:46:04;3.28;;;2.85;;
11931;SDS011;6025;51.368;6.788;2023-08-31T07:50:55;4.15;;;2.55;;
11931;SDS011;6025;51.368;6.788;2023-08-31T07:55:52;5.00;;;2.80;;
11931;SDS011;6025;51.368;6.788;2023-08-31T08:00:45;4.10;;;2.38;;
11931;SDS011;6025;51.368;6.788;2023-08-31T08:05:36;6.85;;;3.08;;
11931;SDS011;6025;51.368;6.788;2023-08-31T08:10:28;4.80;;;2.58;;
11931;SDS011;6025;51.368;6.788;2023-08-31T08:15:22;5.10;;;2.83;;
11931;SDS011;6025;51.368;6.788;2023-08-31T08:20:14;5.38;;;2.80;;
11931;SDS011;6025;51.368;6.788;2023-08-31T08:25:05;4.95;;;3.08;;
11931;SDS011;6025;51.368;6.788;2023-08-31T08:29:57;3.80;;;2.72;;
11931;SDS011;6025;51.368;6.788;2023-08-31T08:34:51;5.00;;;3.03;;
11931;SDS011;6025;51.368;6.788;2023-08-31T08:39:42;4.80;;;2.85;;
11931;SDS011;6025;51.368;6.788;2023-08-31T08:44:34;3.25;;;2.70;;
11931;SDS011;6025;51.368;6.788;2023-08-31T08:49:26;5.35;;;2.35;;
11931;SDS011;6025;51.368;6.788;2023-08-31T08:54:21;4.88;;;2.42;;
11931;SDS011;6025;51.368;6.788;2023-08-31T08:59:13;4.80;;;2.70;;
11931;SDS011;6025;51.368;6.788;2023-08-31T09:04:05;6.25;;;3.08;;
11931;SDS011;6025;51.368;6.788;2023-08-31T09:08:57;3.25;;;2.67;;
11931;SDS011;6025;51.368;6.788;2023-08-31T09:13:50;3.45;;;2.30;;
11931;SDS011;6025;51.368;6.788;2023-08-31T09:18:42;2.97;;;1.90;;
11931;SDS011;6025;51.368;6.788;2023-08-31T09:23:34;6.88;;;2.22;;
11931;SDS011;6025;51.368;6.788;2023-08-31T09:28:26;3.33;;;2.15;;
11931;SDS011;6025;51.368;6.788;2023-08-31T09:33:20;4.50;;;2.10;;
11931;SDS011;6025;51.368;6.788;2023-08-31T09:38:12;5.55;;;1.85;;
11931;SDS011;6025;51.368;6.788;2023-08-31T09:43:05;3.97;;;1.77;;
11931;SDS011;6025;51.368;6.788;2023-08-31T09:47:57;5.95;;;1.90;;
11931;SDS011;6025;51.368;6.788;2023-08-31T09:52:51;2.55;;;1.70;;
11931;SDS011;6025;51.368;6.788;2023-08-31T09:57:48;2.05;;;1.52;;
11931;SDS011;6025;51.368;6.788;2023-08-31T10:02:39;5.32;;;1.50;;
11931;SDS011;6025;51.368;6.788;2023-08-31T10:07:31;2.42;;;1.40;;
11931;SDS011;6025;51.368;6.788;2023-08-31T10:12:24;3.10;;;1.75;;
11931;SDS011;6025;51.368;6.788;2023-08-31T10:17:18;5.65;;;1.52;;
11931;SDS011;6025;51.368;6.788;2023-08-31T10:22:10;4.70;;;1.88;;
11931;SDS011;6025;51.368;6.788;2023-08-31T10:27:16;3.45;;;1.70;;
11931;SDS011;6025;51.368;6.788;2023-08-31T10:32:09;2.72;;;1.80;;
11931;SDS011;6025;51.368;6.788;2023-08-31T10:37:01;4.72;;;1.67;;
11931;SDS011;6025;51.368;6.788;2023-08-31T10:41:53;3.78;;;2.00;;
11931;SDS011;6025;51.368;6.788;2023-08-31T10:46:45;4.30;;;1.83;;
11931;SDS011;6025;51.368;6.788;2023-08-31T10:51:39;3.72;;;1.70;;
11931;SDS011;6025;51.368;6.788;2023-08-31T10:56:32;3.83;;;1.90;;
11931;SDS011;6025;51.368;6.788;2023-08-31T11:06:48;3.60;;;1.52;;
11931;SDS011;6025;51.368;6.788;2023-08-31T11:11:40;5.00;;;2.05;;
11931;SDS011;6025;51.368;6.788;2023-08-31T11:16:31;2.95;;;1.40;;
11931;SDS011;6025;51.368;6.788;2023-08-31T11:21:23;6.22;;;1.60;;
11931;SDS011;6025;51.368;6.788;2023-08-31T11:26:16;4.78;;;1.75;;
11931;SDS011;6025;51.368;6.788;2023-08-31T11:31:07;2.63;;;1.40;;
11931;SDS011;6025;51.368;6.788;2023-08-31T11:35:59;3.63;;;1.52;;
11931;SDS011;6025;51.368;6.788;2023-08-31T11:40:51;2.38;;;1.40;;
11931;SDS011;6025;51.368;6.788;2023-08-31T11:45:48;3.85;;;1.40;;
11931;SDS011;6025;51.368;6.788;2023-08-31T11:50:40;3.63;;;1.60;;
11931;SDS011;6025;51.368;6.788;2023-08-31T11:55:33;4.78;;;1.70;;
11931;SDS011;6025;51.368;6.788;2023-08-31T12:00:24;2.40;;;1.48;;
11931;SDS011;6025;51.368;6.788;2023-08-31T12:05:17;2.20;;;1.35;;
11931;SDS011;6025;51.368;6.788;2023-08-31T12:10:09;3.05;;;1.40;;
11931;SDS011;6025;51.368;6.788;2023-08-31T12:15:01;4.45;;;1.77;;
11931;SDS011;6025;51.368;6.788;2023-08-31T12:20:01;2.83;;;1.40;;
11931;SDS011;6025;51.368;6.788;2023-08-31T12:24:56;4.10;;;1.52;;
11931;SDS011;6025;51.368;6.788;2023-08-31T12:29:48;3.60;;;1.60;;
11931;SDS011;6025;51.368;6.788;2023-08-31T12:34:40;2.58;;;1.70;;
11931;SDS011;6025;51.368;6.788;2023-08-31T12:39:31;3.22;;;1.63;;
11931;SDS011;6025;51.368;6.788;2023-08-31T12:44:24;2.38;;;1.40;;
11931;SDS011;6025;51.368;6.788;2023-08-31T12:49:16;3.05;;;1.70;;
11931;SDS011;6025;51.368;6.788;2023-08-31T12:54:10;4.75;;;1.73;;
11931;SDS011;6025;51.368;6.788;2023-08-31T12:59:01;4.55;;;1.60;;
11931;SDS011;6025;51.368;6.788;2023-08-31T13:03:56;4.72;;;1.50;;
11931;SDS011;6025;51.368;6.788;2023-08-31T13:08:48;3.58;;;1.67;;
11931;SDS011;6025;51.368;6.788;2023-08-31T13:13:40;3.35;;;1.38;;
11931;SDS011;6025;51.368;6.788;2023-08-31T13:18:32;4.55;;;1.55;;
11931;SDS011;6025;51.368;6.788;2023-08-31T13:23:25;4.45;;;1.50;;
11931;SDS011;6025;51.368;6.788;2023-08-31T13:28:16;2.38;;;1.60;;
11931;SDS011;6025;51.368;6.788;2023-08-31T13:33:08;2.92;;;1.60;;
11931;SDS011;6025;51.368;6.788;2023-08-31T13:38:00;3.05;;;1.50;;
11931;SDS011;6025;51.368;6.788;2023-08-31T13:42:54;4.32;;;1.52;;
11931;SDS011;6025;51.368;6.788;2023-08-31T13:47:47;2.70;;;1.42;;
11931;SDS011;6025;51.368;6.788;2023-08-31T13:52:39;1.98;;;1.30;;
11931;SDS011;6025;51.368;6.788;2023-08-31T13:57:31;3.20;;;1.30;;
11931;SDS011;6025;51.368;6.788;2023-08-31T14:02:24;2.90;;;1.40;;
11931;SDS011;6025;51.368;6.788;2023-08-31T14:07:16;1.80;;;1.13;;
11931;SDS011;6025;51.368;6.788;2023-08-31T14:12:07;3.88;;;1.50;;
11931;SDS011;6025;51.368;6.788;2023-08-31T14:16:59;4.57;;;1.50;;
11931;SDS011;6025;51.368;6.788;2023-08-31T14:21:52;3.35;;;1.58;;
11931;SDS011;6025;51.368;6.788;2023-08-31T14:26:43;3.05;;;1.77;;
11931;SDS011;6025;51.368;6.788;2023-08-31T14:31:35;3.85;;;1.98;;
11931;SDS011;6025;51.368;6.788;2023-08-31T14:36:27;3.08;;;1.80;;
11931;SDS011;6025;51.368;6.788;2023-08-31T14:41:20;4.03;;;2.08;;
11931;SDS011;6025;51.368;6.788;2023-08-31T14:46:12;4.03;;;2.08;;
11931;SDS011;6025;51.368;6.788;2023-08-31T14:51:03;4.68;;;2.22;;
11931;SDS011;6025;51.368;6.788;2023-08-31T14:55:55;4.63;;;2.00;;
11931;SDS011;6025;51.368;6.788;2023-08-31T15:00:48;3.97;;;2.38;;
11931;SDS011;6025;51.368;6.788;2023-08-31T15:05:40;2.72;;;1.83;;
11931;SDS011;6025;51.368;6.788;2023-08-31T15:10:32;3.20;;;2.00;;
11931;SDS011;6025;51.368;6.788;2023-08-31T15:15:23;2.67;;;1.60;;
11931;SDS011;6025;51.368;6.788;2023-08-31T15:20:16;2.30;;;1.80;;
11931;SDS011;6025;51.368;6.788;2023-08-31T15:25:08;3.00;;;1.80;;
11931;SDS011;6025;51.368;6.788;2023-08-31T15:30:00;3.13;;;1.85;;
11931;SDS011;6025;51.368;6.788;2023-08-31T15:34:51;2.97;;;1.63;;
11931;SDS011;6025;51.368;6.788;2023-08-31T15:39:45;3.80;;;1.90;;
11931;SDS011;6025;51.368;6.788;2023-08-31T15:44:39;3.13;;;1.90;;
11931;SDS011;6025;51.368;6.788;2023-08-31T15:49:31;3.60;;;1.70;;
11931;SDS011;6025;51.368;6.788;2023-08-31T15:54:23;2.60;;;1.63;;
11931;SDS011;6025;51.368;6.788;2023-08-31T15:59:15;3.20;;;2.00;;
11931;SDS011;6025;51.368;6.788;2023-08-31T16:04:07;4.60;;;2.10;;
11931;SDS011;6025;51.368;6.788;2023-08-31T16:08:59;2.53;;;2.03;;
11931;SDS011;6025;51.368;6.788;2023-08-31T16:13:50;3.05;;;2.20;;
11931;SDS011;6025;51.368;6.788;2023-08-31T16:18:43;5.82;;;2.13;;
11931;SDS011;6025;51.368;6.788;2023-08-31T16:23:35;2.47;;;1.83;;
11931;SDS011;6025;51.368;6.788;2023-08-31T16:28:30;3.85;;;2.20;;
11931;SDS011;6025;51.368;6.788;2023-08-31T16:33:21;3.13;;;2.03;;
11931;SDS011;6025;51.368;6.788;2023-08-31T16:38:16;3.42;;;1.98;;
11931;SDS011;6025;51.368;6.788;2023-08-31T16:43:07;2.80;;;1.80;;
11931;SDS011;6025;51.368;6.788;2023-08-31T16:47:59;3.28;;;2.00;;
11931;SDS011;6025;51.368;6.788;2023-08-31T16:52:50;3.58;;;2.15;;
11931;SDS011;6025;51.368;6.788;2023-08-31T16:57:43;4.82;;;1.83;;
11931;SDS011;6025;51.368;6.788;2023-08-31T17:02:35;2.85;;;1.65;;
11931;SDS011;6025;51.368;6.788;2023-08-31T17:07:26;4.00;;;2.20;;
11931;SDS011;6025;51.368;6.788;2023-08-31T17:12:18;3.25;;;2.03;;
11931;SDS011;6025;51.368;6.788;2023-08-31T17:17:10;3.10;;;2.05;;
11931;SDS011;6025;51.368;6.788;2023-08-31T17:22:02;2.88;;;1.60;;
11931;SDS011;6025;51.368;6.788;2023-08-31T17:26:54;2.80;;;1.67;;
11931;SDS011;6025;51.368;6.788;2023-08-31T17:31:46;2.58;;;1.90;;
11931;SDS011;6025;51.368;6.788;2023-08-31T17:36:38;3.60;;;2.25;;
11931;SDS011;6025;51.368;6.788;2023-08-31T17:41:31;2.97;;;1.95;;
11931;SDS011;6025;51.368;6.788;2023-08-31T17:46:22;4.18;;;2.10;;
11931;SDS011;6025;51.368;6.788;2023-08-31T17:51:14;3.22;;;2.17;;
11931;SDS011;6025;51.368;6.788;2023-08-31T17:56:07;2.58;;;2.10;;
11931;SDS011;6025;51.368;6.788;2023-08-31T18:00:58;3.45;;;2.10;;
11931;SDS011;6025;51.368;6.788;2023-08-31T18:05:50;3.53;;;2.00;;
11931;SDS011;6025;51.368;6.788;2023-08-31T18:10:44;3.38;;;2.15;;
11931;SDS011;6025;51.368;6.788;2023-08-31T18:15:36;4.35;;;2.35;;
11931;SDS011;6025;51.368;6.788;2023-08-31T18:20:28;3.13;;;2.20;;
11931;SDS011;6025;51.368;6.788;2023-08-31T18:25:19;7.35;;;2.53;;
11931;SDS011;6025;51.368;6.788;2023-08-31T18:30:11;3.72;;;2.00;;
11931;SDS011;6025;51.368;6.788;2023-08-31T18:35:05;3.92;;;1.88;;
11931;SDS011;6025;51.368;6.788;2023-08-31T18:39:57;5.68;;;3.13;;
11931;SDS011;6025;51.368;6.788;2023-08-31T18:44:49;3.05;;;2.10;;
11931;SDS011;6025;51.368;6.788;2023-08-31T18:49:40;2.88;;;2.08;;
11931;SDS011;6025;51.368;6.788;2023-08-31T18:54:33;3.70;;;2.28;;
11931;SDS011;6025;51.368;6.788;2023-08-31T18:59:25;4.45;;;2.50;;
11931;SDS011;6025;51.368;6.788;2023-08-31T19:04:16;3.63;;;2.40;;
11931;SDS011;6025;51.368;6.788;2023-08-31T19:09:08;4.25;;;2.30;;
11931;SDS011;6025;51.368;6.788;2023-08-31T19:14:02;4.18;;;2.17;;
11931;SDS011;6025;51.368;6.788;2023-08-31T19:18:54;4.60;;;2.58;;
11931;SDS011;6025;51.368;6.788;2023-08-31T19:23:45;4.32;;;2.58;;
11931;SDS011;6025;51.368;6.788;2023-08-31T19:28:37;5.03;;;2.35;;
11931;SDS011;6025;51.368;6.788;2023-08-31T19:33:29;4.47;;;2.45;;
11931;SDS011;6025;51.368;6.788;2023-08-31T19:38:21;4.60;;;2.40;;
11931;SDS011;6025;51.368;6.788;2023-08-31T19:43:13;3.33;;;2.55;;
11931;SDS011;6025;51.368;6.788;2023-08-31T19:48:05;3.40;;;2.47;;
11931;SDS011;6025;51.368;6.788;2023-08-31T19:52:58;4.30;;;2.40;;
11931;SDS011;6025;51.368;6.788;2023-08-31T19:57:49;4.15;;;2.42;;
11931;SDS011;6025;51.368;6.788;2023-08-31T20:02:41;3.17;;;2.35;;
11931;SDS011;6025;51.368;6.788;2023-08-31T20:07:32;3.25;;;2.30;;
11931;SDS011;6025;51.368;6.788;2023-08-31T20:12:25;6.00;;;2.67;;
11931;SDS011;6025;51.368;6.788;2023-08-31T20:17:17;4.80;;;2.80;;
11931;SDS011;6025;51.368;6.788;2023-08-31T20:22:08;4.38;;;2.85;;
11931;SDS011;6025;51.368;6.788;2023-08-31T20:27:00;3.20;;;2.60;;
11931;SDS011;6025;51.368;6.788;2023-08-31T20:31:54;3.25;;;2.67;;
11931;SDS011;6025;51.368;6.788;2023-08-31T20:36:46;4.43;;;2.90;;
11931;SDS011;6025;51.368;6.788;2023-08-31T20:41:40;4.50;;;2.60;;
11931;SDS011;6025;51.368;6.788;2023-08-31T20:46:31;7.90;;;2.70;;
11931;SDS011;6025;51.368;6.788;2023-08-31T20:51:28;3.70;;;2.60;;
11931;SDS011;6025;51.368;6.788;2023-08-31T20:56:19;2.85;;;2.20;;
11931;SDS011;6025;51.368;6.788;2023-08-31T21:01:11;3.50;;;2.40;;
11931;SDS011;6025;51.368;6.788;2023-08-31T21:06:03;6.13;;;2.50;;
11931;SDS011;6025;51.368;6.788;2023-08-31T21:10:56;3.92;;;2.38;;
11931;SDS011;6025;51.368;6.788;2023-08-31T21:15:47;3.78;;;2.35;;
11931;SDS011;6025;51.368;6.788;2023-08-31T21:20:39;5.57;;;2.38;;
11931;SDS011;6025;51.368;6.788;2023-08-31T21:25:31;3.78;;;2.40;;
11931;SDS011;6025;51.368;6.788;2023-08-31T21:30:24;4.70;;;2.15;;
11931;SDS011;6025;51.368;6.788;2023-08-31T21:35:16;4.60;;;2.45;;
11931;SDS011;6025;51.368;6.788;2023-08-31T21:40:08;5.22;;;2.30;;
11931;SDS011;6025;51.368;6.788;2023-08-31T21:45:00;3.28;;;2.10;;
11931;SDS011;6025;51.368;6.788;2023-08-31T21:49:54;3.92;;;2.20;;
11931;SDS011;6025;51.368;6.788;2023-08-31T21:54:45;3.90;;;2.28;;
11931;SDS011;6025;51.368;6.788;2023-08-31T21:59:37;4.05;;;2.30;;
11931;SDS011;6025;51.368;6.788;2023-08-31T22:04:29;4.28;;;2.30;;
11931;SDS011;6025;51.368;6.788;2023-08-31T22:09:24;3.92;;;2.20;;
11931;SDS011;6025;51.368;6.788;2023-08-31T22:14:16;3.42;;;2.30;;
11931;SDS011;6025;51.368;6.788;2023-08-31T22:19:08;4.20;;;2.30;;
11931;SDS011;6025;51.368;6.788;2023-08-31T22:24:00;3.42;;;2.40;;
11931;SDS011;6025;51.368;6.788;2023-08-31T22:28:53;5.13;;;2.40;;
11931;SDS011;6025;51.368;6.788;2023-08-31T22:33:45;4.57;;;2.15;;
11931;SDS011;6025;51.368;6.788;2023-08-31T22:38:36;3.55;;;2.10;;
11931;SDS011;6025;51.368;6.788;2023-08-31T22:43:28;2.33;;;1.90;;
11931;SDS011;6025;51.368;6.788;2023-08-31T22:48:20;5.28;;;2.17;;
11931;SDS011;6025;51.368;6.788;2023-08-31T22:53:12;4.25;;;2.53;;
11931;SDS011;6025;51.368;6.788;2023-08-31T22:58:04;5.03;;;2.33;;
11931;SDS011;6025;51.368;6.788;2023-08-31T23:02:55;5.32;;;2.45;;
11931;SDS011;6025;51.368;6.788;2023-08-31T23:07:48;3.55;;;2.10;;
11931;SDS011;6025;51.368;6.788;2023-08-31T23:12:40;4.15;;;2.20;;
11931;SDS011;6025;51.368;6.788;2023-08-31T23:17:31;5.57;;;2.55;;
11931;SDS011;6025;51.368;6.788;2023-08-31T23:22:23;6.28;;;2.50;;
11931;SDS011;6025;51.368;6.788;2023-08-31T23:27:16;3.72;;;2.30;;
11931;SDS011;6025;51.368;6.788;2023-08-31T23:32:07;4.22;;;2.28;;
11931;SDS011;6025;51.368;6.788;2023-08-31T23:36:59;5.60;;;2.65;;
11931;SDS011;6025;51.368;6.788;2023-08-31T23:41:50;4.18;;;2.65;;
11931;SDS011;6025;51.368;6.788;2023-08-31T23:46:44;4.38;;;2.58;;
11931;SDS011;6025;51.368;6.788;2023-08-31T23:51:35;4.68;;;2.20;;
11931;SDS011;6025;51.368;6.788;2023-08-31T23:56:27;3.97;;;2.38;;
